Terminal Aerodrome Forecast
Issued by NWS

Home | Current Version | Previous Version | Text Only | Print | Product List | Glossary Off
Versions: 1 2 3 4 5 6 7 8 9 10 11 12 13

000
FTUS45 KGGW 212300
TAFOLF
TAF
KOLF 212320Z 2200/2224 VRB04KT P6SM BKN100
     FM220100 29010KT P6SM VCSH BKN070
     FM220900 VRB06KT P6SM BKN060
     FM221700 27014KT P6SM FEW150=

USA.gov is the U.S. government's official web portal to all federal, state and local government web resources and services.